sensor_id;sensor_type;location;lat;lon;timestamp;P1;durP1;ratioP1;P2;durP2;ratioP2
60243;SDS011;46106;51.468;5.814;2022-08-26T00:01:47;233.80;;;87.18;;
60243;SDS011;46106;51.468;5.814;2022-08-26T00:04:14;202.20;;;86.07;;
60243;SDS011;46106;51.468;5.814;2022-08-26T00:06:45;226.95;;;83.20;;
60243;SDS011;46106;51.468;5.814;2022-08-26T00:09:22;219.15;;;79.82;;
60243;SDS011;46106;51.468;5.814;2022-08-26T00:11:58;210.98;;;82.22;;
60243;SDS011;46106;51.468;5.814;2022-08-26T00:14:24;211.45;;;76.88;;
60243;SDS011;46106;51.468;5.814;2022-08-26T00:16:50;192.60;;;75.63;;
60243;SDS011;46106;51.468;5.814;2022-08-26T00:19:16;214.07;;;76.95;;
60243;SDS011;46106;51.468;5.814;2022-08-26T00:21:44;202.23;;;72.68;;
60243;SDS011;46106;51.468;5.814;2022-08-26T00:24:18;187.50;;;69.47;;
60243;SDS011;46106;51.468;5.814;2022-08-26T00:26:47;174.13;;;66.60;;
60243;SDS011;46106;51.468;5.814;2022-08-26T00:29:14;171.48;;;64.43;;
60243;SDS011;46106;51.468;5.814;2022-08-26T00:31:41;174.05;;;64.07;;
60243;SDS011;46106;51.468;5.814;2022-08-26T00:34:07;181.77;;;62.85;;
60243;SDS011;46106;51.468;5.814;2022-08-26T00:36:36;154.68;;;54.78;;
60243;SDS011;46106;51.468;5.814;2022-08-26T00:39:08;149.35;;;54.90;;
60243;SDS011;46106;51.468;5.814;2022-08-26T00:41:40;151.52;;;54.38;;
60243;SDS011;46106;51.468;5.814;2022-08-26T00:44:10;145.73;;;53.30;;
60243;SDS011;46106;51.468;5.814;2022-08-26T00:46:39;124.80;;;50.55;;
60243;SDS011;46106;51.468;5.814;2022-08-26T00:49:12;130.07;;;48.08;;
60243;SDS011;46106;51.468;5.814;2022-08-26T00:51:49;124.95;;;46.50;;
60243;SDS011;46106;51.468;5.814;2022-08-26T00:54:17;119.28;;;44.45;;
60243;SDS011;46106;51.468;5.814;2022-08-26T00:57:00;119.15;;;42.47;;
60243;SDS011;46106;51.468;5.814;2022-08-26T00:59:30;122.07;;;42.85;;
60243;SDS011;46106;51.468;5.814;2022-08-26T01:02:00;97.25;;;40.45;;
60243;SDS011;46106;51.468;5.814;2022-08-26T01:04:26;91.18;;;37.30;;
60243;SDS011;46106;51.468;5.814;2022-08-26T01:06:58;91.18;;;35.17;;
60243;SDS011;46106;51.468;5.814;2022-08-26T01:09:32;82.93;;;30.58;;
60243;SDS011;46106;51.468;5.814;2022-08-26T01:12:02;80.55;;;31.23;;
60243;SDS011;46106;51.468;5.814;2022-08-26T01:14:32;81.43;;;28.85;;
60243;SDS011;46106;51.468;5.814;2022-08-26T01:17:01;66.30;;;27.75;;
60243;SDS011;46106;51.468;5.814;2022-08-26T01:19:30;63.50;;;25.15;;
60243;SDS011;46106;51.468;5.814;2022-08-26T01:22:11;67.30;;;24.80;;
60243;SDS011;46106;51.468;5.814;2022-08-26T01:24:43;73.88;;;23.08;;
60243;SDS011;46106;51.468;5.814;2022-08-26T01:27:11;58.50;;;21.73;;
60243;SDS011;46106;51.468;5.814;2022-08-26T01:29:42;65.00;;;21.25;;
60243;SDS011;46106;51.468;5.814;2022-08-26T01:32:13;46.08;;;19.45;;
60243;SDS011;46106;51.468;5.814;2022-08-26T01:34:47;60.45;;;19.55;;
60243;SDS011;46106;51.468;5.814;2022-08-26T01:37:17;50.05;;;17.88;;
60243;SDS011;46106;51.468;5.814;2022-08-26T01:39:48;47.88;;;17.80;;
60243;SDS011;46106;51.468;5.814;2022-08-26T01:42:18;51.28;;;17.48;;
60243;SDS011;46106;51.468;5.814;2022-08-26T01:44:55;36.25;;;15.07;;
60243;SDS011;46106;51.468;5.814;2022-08-26T01:47:29;61.35;;;17.60;;
60243;SDS011;46106;51.468;5.814;2022-08-26T01:49:58;49.45;;;16.00;;
60243;SDS011;46106;51.468;5.814;2022-08-26T01:52:28;54.90;;;17.05;;
60243;SDS011;46106;51.468;5.814;2022-08-26T01:54:57;47.80;;;17.25;;
60243;SDS011;46106;51.468;5.814;2022-08-26T01:57:24;40.80;;;16.20;;
60243;SDS011;46106;51.468;5.814;2022-08-26T01:59:54;49.95;;;16.73;;
60243;SDS011;46106;51.468;5.814;2022-08-26T02:02:24;49.85;;;16.92;;
60243;SDS011;46106;51.468;5.814;2022-08-26T02:04:58;55.58;;;17.65;;
60243;SDS011;46106;51.468;5.814;2022-08-26T02:07:32;48.28;;;18.10;;
60243;SDS011;46106;51.468;5.814;2022-08-26T02:09:58;45.58;;;17.05;;
60243;SDS011;46106;51.468;5.814;2022-08-26T02:12:25;45.60;;;17.92;;
60243;SDS011;46106;51.468;5.814;2022-08-26T02:14:52;55.10;;;17.70;;
60243;SDS011;46106;51.468;5.814;2022-08-26T02:17:24;55.85;;;16.63;;
60243;SDS011;46106;51.468;5.814;2022-08-26T02:20:00;43.63;;;16.85;;
60243;SDS011;46106;51.468;5.814;2022-08-26T02:22:30;52.08;;;17.60;;
60243;SDS011;46106;51.468;5.814;2022-08-26T02:24:58;55.45;;;17.27;;
60243;SDS011;46106;51.468;5.814;2022-08-26T02:27:33;48.80;;;18.52;;
60243;SDS011;46106;51.468;5.814;2022-08-26T02:32:35;49.83;;;18.25;;
60243;SDS011;46106;51.468;5.814;2022-08-26T02:35:11;49.70;;;18.10;;
60243;SDS011;46106;51.468;5.814;2022-08-26T02:37:46;47.33;;;17.08;;
60243;SDS011;46106;51.468;5.814;2022-08-26T02:40:23;51.75;;;16.80;;
60243;SDS011;46106;51.468;5.814;2022-08-26T02:42:55;45.00;;;15.90;;
60243;SDS011;46106;51.468;5.814;2022-08-26T02:45:23;47.28;;;16.70;;
60243;SDS011;46106;51.468;5.814;2022-08-26T02:47:55;54.67;;;16.75;;
60243;SDS011;46106;51.468;5.814;2022-08-26T02:50:27;39.87;;;15.70;;
60243;SDS011;46106;51.468;5.814;2022-08-26T02:52:56;48.15;;;17.25;;
60243;SDS011;46106;51.468;5.814;2022-08-26T02:55:30;43.88;;;16.20;;
60243;SDS011;46106;51.468;5.814;2022-08-26T02:58:01;45.85;;;16.50;;
60243;SDS011;46106;51.468;5.814;2022-08-26T03:00:35;36.35;;;16.13;;
60243;SDS011;46106;51.468;5.814;2022-08-26T03:03:06;45.53;;;16.07;;
60243;SDS011;46106;51.468;5.814;2022-08-26T03:05:42;40.22;;;15.32;;
60243;SDS011;46106;51.468;5.814;2022-08-26T03:08:08;52.70;;;15.48;;
60243;SDS011;46106;51.468;5.814;2022-08-26T03:10:39;45.72;;;16.25;;
60243;SDS011;46106;51.468;5.814;2022-08-26T03:13:07;50.50;;;15.40;;
60243;SDS011;46106;51.468;5.814;2022-08-26T03:15:32;52.40;;;15.88;;
60243;SDS011;46106;51.468;5.814;2022-08-26T03:17:58;43.15;;;15.13;;
60243;SDS011;46106;51.468;5.814;2022-08-26T03:20:23;39.72;;;14.43;;
60243;SDS011;46106;51.468;5.814;2022-08-26T03:22:57;60.88;;;15.30;;
60243;SDS011;46106;51.468;5.814;2022-08-26T03:25:23;47.95;;;13.27;;
60243;SDS011;46106;51.468;5.814;2022-08-26T03:27:52;54.97;;;15.40;;
60243;SDS011;46106;51.468;5.814;2022-08-26T03:30:22;43.45;;;14.30;;
60243;SDS011;46106;51.468;5.814;2022-08-26T03:33:09;53.47;;;14.02;;
60243;SDS011;46106;51.468;5.814;2022-08-26T03:35:40;37.22;;;13.60;;
60243;SDS011;46106;51.468;5.814;2022-08-26T03:38:08;49.55;;;13.82;;
60243;SDS011;46106;51.468;5.814;2022-08-26T03:40:35;33.28;;;12.60;;
60243;SDS011;46106;51.468;5.814;2022-08-26T03:43:02;49.20;;;13.60;;
60243;SDS011;46106;51.468;5.814;2022-08-26T03:45:29;48.13;;;12.48;;
60243;SDS011;46106;51.468;5.814;2022-08-26T03:47:58;45.90;;;11.77;;
60243;SDS011;46106;51.468;5.814;2022-08-26T03:50:24;47.13;;;11.63;;
60243;SDS011;46106;51.468;5.814;2022-08-26T03:52:53;44.30;;;12.18;;
60243;SDS011;46106;51.468;5.814;2022-08-26T03:55:22;37.58;;;12.00;;
60243;SDS011;46106;51.468;5.814;2022-08-26T03:57:51;49.92;;;12.55;;
60243;SDS011;46106;51.468;5.814;2022-08-26T04:00:17;37.70;;;12.27;;
60243;SDS011;46106;51.468;5.814;2022-08-26T04:02:44;48.42;;;12.10;;
60243;SDS011;46106;51.468;5.814;2022-08-26T04:05:17;43.13;;;10.60;;
60243;SDS011;46106;51.468;5.814;2022-08-26T04:07:45;43.45;;;10.50;;
60243;SDS011;46106;51.468;5.814;2022-08-26T04:10:21;33.17;;;10.38;;
60243;SDS011;46106;51.468;5.814;2022-08-26T04:12:55;34.58;;;9.88;;
60243;SDS011;46106;51.468;5.814;2022-08-26T04:15:30;40.83;;;9.85;;
60243;SDS011;46106;51.468;5.814;2022-08-26T04:17:56;31.15;;;8.82;;
60243;SDS011;46106;51.468;5.814;2022-08-26T04:20:22;28.80;;;8.73;;
60243;SDS011;46106;51.468;5.814;2022-08-26T04:22:48;32.20;;;8.18;;
60243;SDS011;46106;51.468;5.814;2022-08-26T04:25:15;39.33;;;8.98;;
60243;SDS011;46106;51.468;5.814;2022-08-26T04:27:46;32.08;;;7.85;;
60243;SDS011;46106;51.468;5.814;2022-08-26T04:30:16;44.40;;;8.32;;
60243;SDS011;46106;51.468;5.814;2022-08-26T04:32:44;29.38;;;8.32;;
60243;SDS011;46106;51.468;5.814;2022-08-26T04:35:15;35.28;;;7.93;;
60243;SDS011;46106;51.468;5.814;2022-08-26T04:37:41;27.85;;;7.13;;
60243;SDS011;46106;51.468;5.814;2022-08-26T04:40:10;34.20;;;7.68;;
60243;SDS011;46106;51.468;5.814;2022-08-26T04:42:38;24.98;;;7.72;;
60243;SDS011;46106;51.468;5.814;2022-08-26T04:45:11;45.83;;;7.63;;
60243;SDS011;46106;51.468;5.814;2022-08-26T04:47:43;36.80;;;8.30;;
60243;SDS011;46106;51.468;5.814;2022-08-26T04:50:17;40.60;;;8.30;;
60243;SDS011;46106;51.468;5.814;2022-08-26T04:52:44;36.13;;;7.32;;
60243;SDS011;46106;51.468;5.814;2022-08-26T04:55:14;33.38;;;7.35;;
60243;SDS011;46106;51.468;5.814;2022-08-26T04:57:40;36.97;;;7.85;;
60243;SDS011;46106;51.468;5.814;2022-08-26T05:00:08;31.02;;;7.95;;
60243;SDS011;46106;51.468;5.814;2022-08-26T05:02:37;43.15;;;8.05;;
60243;SDS011;46106;51.468;5.814;2022-08-26T05:05:03;30.75;;;8.30;;
60243;SDS011;46106;51.468;5.814;2022-08-26T05:07:30;32.17;;;7.38;;
60243;SDS011;46106;51.468;5.814;2022-08-26T05:09:57;38.28;;;7.78;;
60243;SDS011;46106;51.468;5.814;2022-08-26T05:12:31;37.25;;;7.63;;
60243;SDS011;46106;51.468;5.814;2022-08-26T05:14:57;34.05;;;8.85;;
60243;SDS011;46106;51.468;5.814;2022-08-26T05:17:23;31.80;;;7.70;;
60243;SDS011;46106;51.468;5.814;2022-08-26T05:19:50;33.00;;;7.68;;
60243;SDS011;46106;51.468;5.814;2022-08-26T05:22:15;40.70;;;8.25;;
60243;SDS011;46106;51.468;5.814;2022-08-26T05:24:41;33.60;;;7.68;;
60243;SDS011;46106;51.468;5.814;2022-08-26T05:27:07;24.45;;;7.47;;
60243;SDS011;46106;51.468;5.814;2022-08-26T05:29:40;36.67;;;7.97;;
60243;SDS011;46106;51.468;5.814;2022-08-26T05:32:08;43.83;;;7.25;;
60243;SDS011;46106;51.468;5.814;2022-08-26T05:34:33;36.58;;;6.82;;
60243;SDS011;46106;51.468;5.814;2022-08-26T05:36:59;34.83;;;6.22;;
60243;SDS011;46106;51.468;5.814;2022-08-26T05:39:25;21.65;;;6.55;;
60243;SDS011;46106;51.468;5.814;2022-08-26T05:41:52;28.88;;;6.75;;
60243;SDS011;46106;51.468;5.814;2022-08-26T05:44:20;25.75;;;6.63;;
60243;SDS011;46106;51.468;5.814;2022-08-26T05:46:46;30.27;;;6.57;;
60243;SDS011;46106;51.468;5.814;2022-08-26T05:49:15;38.03;;;6.60;;
60243;SDS011;46106;51.468;5.814;2022-08-26T05:51:42;28.05;;;7.03;;
60243;SDS011;46106;51.468;5.814;2022-08-26T05:54:10;23.60;;;6.53;;
60243;SDS011;46106;51.468;5.814;2022-08-26T05:56:37;23.42;;;5.43;;
60243;SDS011;46106;51.468;5.814;2022-08-26T05:59:04;34.13;;;6.90;;
60243;SDS011;46106;51.468;5.814;2022-08-26T06:01:31;25.52;;;6.45;;
60243;SDS011;46106;51.468;5.814;2022-08-26T06:03:59;31.20;;;6.28;;
60243;SDS011;46106;51.468;5.814;2022-08-26T06:06:31;39.03;;;6.20;;
60243;SDS011;46106;51.468;5.814;2022-08-26T06:08:59;21.92;;;4.93;;
60243;SDS011;46106;51.468;5.814;2022-08-26T06:11:30;29.35;;;5.93;;
60243;SDS011;46106;51.468;5.814;2022-08-26T06:14:06;29.73;;;5.55;;
60243;SDS011;46106;51.468;5.814;2022-08-26T06:16:33;29.48;;;6.05;;
60243;SDS011;46106;51.468;5.814;2022-08-26T06:21:34;28.52;;;4.88;;
60243;SDS011;46106;51.468;5.814;2022-08-26T06:24:08;12.75;;;4.75;;
60243;SDS011;46106;51.468;5.814;2022-08-26T06:27:04;22.80;;;4.88;;
60243;SDS011;46106;51.468;5.814;2022-08-26T06:29:38;26.90;;;4.88;;
60243;SDS011;46106;51.468;5.814;2022-08-26T06:32:06;26.60;;;4.93;;
60243;SDS011;46106;51.468;5.814;2022-08-26T06:34:32;33.30;;;5.25;;
60243;SDS011;46106;51.468;5.814;2022-08-26T06:36:58;33.03;;;5.53;;
60243;SDS011;46106;51.468;5.814;2022-08-26T06:39:26;36.80;;;4.90;;
60243;SDS011;46106;51.468;5.814;2022-08-26T06:41:52;16.65;;;4.57;;
60243;SDS011;46106;51.468;5.814;2022-08-26T06:44:22;36.38;;;5.50;;
60243;SDS011;46106;51.468;5.814;2022-08-26T06:46:49;36.53;;;4.80;;
60243;SDS011;46106;51.468;5.814;2022-08-26T06:49:21;26.70;;;4.63;;
60243;SDS011;46106;51.468;5.814;2022-08-26T06:51:53;27.73;;;5.05;;
60243;SDS011;46106;51.468;5.814;2022-08-26T06:54:29;20.27;;;4.43;;
60243;SDS011;46106;51.468;5.814;2022-08-26T06:56:59;24.90;;;5.22;;
60243;SDS011;46106;51.468;5.814;2022-08-26T06:59:30;35.72;;;4.72;;
60243;SDS011;46106;51.468;5.814;2022-08-26T07:02:01;21.90;;;5.20;;
60243;SDS011;46106;51.468;5.814;2022-08-26T07:04:29;23.38;;;5.15;;
60243;SDS011;46106;51.468;5.814;2022-08-26T07:06:55;34.25;;;5.45;;
60243;SDS011;46106;51.468;5.814;2022-08-26T07:09:24;42.42;;;6.18;;
60243;SDS011;46106;51.468;5.814;2022-08-26T07:11:53;30.30;;;5.85;;
60243;SDS011;46106;51.468;5.814;2022-08-26T07:14:28;39.75;;;5.50;;
60243;SDS011;46106;51.468;5.814;2022-08-26T07:16:55;25.42;;;5.78;;
60243;SDS011;46106;51.468;5.814;2022-08-26T07:19:25;21.58;;;4.57;;
60243;SDS011;46106;51.468;5.814;2022-08-26T07:22:03;24.35;;;5.43;;
60243;SDS011;46106;51.468;5.814;2022-08-26T07:24:39;29.98;;;5.20;;
60243;SDS011;46106;51.468;5.814;2022-08-26T07:27:15;20.83;;;5.43;;
60243;SDS011;46106;51.468;5.814;2022-08-26T07:29:54;18.85;;;5.38;;
60243;SDS011;46106;51.468;5.814;2022-08-26T07:32:27;25.45;;;5.25;;
60243;SDS011;46106;51.468;5.814;2022-08-26T07:35:00;18.77;;;4.97;;
60243;SDS011;46106;51.468;5.814;2022-08-26T07:37:33;20.92;;;5.40;;
60243;SDS011;46106;51.468;5.814;2022-08-26T07:39:58;30.50;;;4.90;;
60243;SDS011;46106;51.468;5.814;2022-08-26T07:42:26;27.70;;;5.82;;
60243;SDS011;46106;51.468;5.814;2022-08-26T07:44:52;22.60;;;5.88;;
60243;SDS011;46106;51.468;5.814;2022-08-26T07:47:21;31.88;;;5.88;;
60243;SDS011;46106;51.468;5.814;2022-08-26T07:49:48;23.77;;;5.32;;
60243;SDS011;46106;51.468;5.814;2022-08-26T07:52:16;24.77;;;5.22;;
60243;SDS011;46106;51.468;5.814;2022-08-26T07:54:41;26.30;;;6.00;;
60243;SDS011;46106;51.468;5.814;2022-08-26T07:57:11;34.20;;;4.72;;
60243;SDS011;46106;51.468;5.814;2022-08-26T07:59:39;29.08;;;4.50;;
60243;SDS011;46106;51.468;5.814;2022-08-26T08:02:05;23.13;;;5.22;;
60243;SDS011;46106;51.468;5.814;2022-08-26T08:04:32;19.77;;;5.07;;
60243;SDS011;46106;51.468;5.814;2022-08-26T08:07:04;27.02;;;5.30;;
60243;SDS011;46106;51.468;5.814;2022-08-26T08:09:29;21.70;;;5.03;;
60243;SDS011;46106;51.468;5.814;2022-08-26T08:11:55;28.88;;;4.63;;
60243;SDS011;46106;51.468;5.814;2022-08-26T08:14:20;29.98;;;5.85;;
60243;SDS011;46106;51.468;5.814;2022-08-26T08:16:56;28.40;;;4.38;;
60243;SDS011;46106;51.468;5.814;2022-08-26T08:19:28;43.80;;;5.35;;
60243;SDS011;46106;51.468;5.814;2022-08-26T08:21:54;27.67;;;4.80;;
60243;SDS011;46106;51.468;5.814;2022-08-26T08:24:19;32.35;;;5.18;;
60243;SDS011;46106;51.468;5.814;2022-08-26T08:26:46;28.38;;;4.25;;
60243;SDS011;46106;51.468;5.814;2022-08-26T08:29:11;30.27;;;4.43;;
60243;SDS011;46106;51.468;5.814;2022-08-26T08:31:38;25.40;;;4.47;;
60243;SDS011;46106;51.468;5.814;2022-08-26T08:34:09;24.70;;;3.22;;
60243;SDS011;46106;51.468;5.814;2022-08-26T08:36:35;30.58;;;4.10;;
60243;SDS011;46106;51.468;5.814;2022-08-26T08:39:02;43.08;;;4.30;;
60243;SDS011;46106;51.468;5.814;2022-08-26T08:44:19;23.20;;;3.47;;
60243;SDS011;46106;51.468;5.814;2022-08-26T08:46:54;21.35;;;3.38;;
60243;SDS011;46106;51.468;5.814;2022-08-26T08:49:27;21.65;;;3.78;;
60243;SDS011;46106;51.468;5.814;2022-08-26T08:52:05;18.27;;;3.63;;
60243;SDS011;46106;51.468;5.814;2022-08-26T08:54:42;30.70;;;4.50;;
60243;SDS011;46106;51.468;5.814;2022-08-26T08:57:15;34.40;;;3.90;;
60243;SDS011;46106;51.468;5.814;2022-08-26T09:00:00;37.50;;;4.32;;
60243;SDS011;46106;51.468;5.814;2022-08-26T09:02:41;34.97;;;4.68;;
60243;SDS011;46106;51.468;5.814;2022-08-26T09:05:20;29.27;;;4.03;;
60243;SDS011;46106;51.468;5.814;2022-08-26T09:08:05;25.42;;;3.28;;
60243;SDS011;46106;51.468;5.814;2022-08-26T09:10:42;25.33;;;3.70;;
60243;SDS011;46106;51.468;5.814;2022-08-26T09:13:15;26.15;;;3.85;;
60243;SDS011;46106;51.468;5.814;2022-08-26T09:18:38;24.55;;;4.22;;
60243;SDS011;46106;51.468;5.814;2022-08-26T09:21:16;25.20;;;3.22;;
60243;SDS011;46106;51.468;5.814;2022-08-26T09:23:43;19.30;;;3.75;;
60243;SDS011;46106;51.468;5.814;2022-08-26T09:26:24;26.80;;;4.00;;
60243;SDS011;46106;51.468;5.814;2022-08-26T09:28:59;22.17;;;3.47;;
60243;SDS011;46106;51.468;5.814;2022-08-26T09:31:31;22.75;;;3.65;;
60243;SDS011;46106;51.468;5.814;2022-08-26T09:37:03;19.13;;;3.42;;
60243;SDS011;46106;51.468;5.814;2022-08-26T09:39:33;18.98;;;3.70;;
60243;SDS011;46106;51.468;5.814;2022-08-26T09:42:07;22.13;;;4.20;;
60243;SDS011;46106;51.468;5.814;2022-08-26T09:47:39;42.28;;;4.55;;
60243;SDS011;46106;51.468;5.814;2022-08-26T09:55:33;29.17;;;3.55;;
60243;SDS011;46106;51.468;5.814;2022-08-26T09:58:00;29.02;;;4.00;;
60243;SDS011;46106;51.468;5.814;2022-08-26T10:03:35;18.38;;;3.65;;
60243;SDS011;46106;51.468;5.814;2022-08-26T10:06:19;19.67;;;3.50;;
60243;SDS011;46106;51.468;5.814;2022-08-26T10:08:50;27.25;;;3.42;;
60243;SDS011;46106;51.468;5.814;2022-08-26T10:14:12;24.67;;;3.42;;
60243;SDS011;46106;51.468;5.814;2022-08-26T10:16:53;32.38;;;4.05;;
60243;SDS011;46106;51.468;5.814;2022-08-26T10:22:17;37.03;;;3.85;;
60243;SDS011;46106;51.468;5.814;2022-08-26T10:24:48;28.65;;;3.90;;
60243;SDS011;46106;51.468;5.814;2022-08-26T10:27:23;23.25;;;4.03;;
60243;SDS011;46106;51.468;5.814;2022-08-26T10:30:03;25.60;;;3.13;;
60243;SDS011;46106;51.468;5.814;2022-08-26T10:35:43;17.73;;;3.78;;
60243;SDS011;46106;51.468;5.814;2022-08-26T10:38:23;21.27;;;3.05;;
60243;SDS011;46106;51.468;5.814;2022-08-26T10:40:57;28.02;;;3.85;;
60243;SDS011;46106;51.468;5.814;2022-08-26T10:43:50;42.85;;;4.55;;
60243;SDS011;46106;51.468;5.814;2022-08-26T10:46:21;38.42;;;4.57;;
60243;SDS011;46106;51.468;5.814;2022-08-26T10:48:56;29.83;;;4.43;;
60243;SDS011;46106;51.468;5.814;2022-08-26T10:51:37;34.47;;;4.18;;
60243;SDS011;46106;51.468;5.814;2022-08-26T10:59:59;39.20;;;6.68;;
60243;SDS011;46106;51.468;5.814;2022-08-26T11:02:57;47.47;;;8.38;;
60243;SDS011;46106;51.468;5.814;2022-08-26T11:05:29;41.40;;;7.38;;
60243;SDS011;46106;51.468;5.814;2022-08-26T11:10:55;34.22;;;5.75;;
60243;SDS011;46106;51.468;5.814;2022-08-26T11:16:32;47.17;;;5.35;;
60243;SDS011;46106;51.468;5.814;2022-08-26T11:19:00;31.98;;;5.10;;
60243;SDS011;46106;51.468;5.814;2022-08-26T11:32:52;42.97;;;5.50;;
60243;SDS011;46106;51.468;5.814;2022-08-26T11:37:49;26.50;;;4.70;;
60243;SDS011;46106;51.468;5.814;2022-08-26T11:40:39;33.20;;;5.15;;
60243;SDS011;46106;51.468;5.814;2022-08-26T11:43:12;28.17;;;4.75;;
60243;SDS011;46106;51.468;5.814;2022-08-26T11:48:36;31.85;;;6.07;;
60243;SDS011;46106;51.468;5.814;2022-08-26T11:51:11;33.75;;;5.30;;
60243;SDS011;46106;51.468;5.814;2022-08-26T11:53:44;37.95;;;4.40;;
60243;SDS011;46106;51.468;5.814;2022-08-26T11:56:25;32.80;;;5.47;;
60243;SDS011;46106;51.468;5.814;2022-08-26T11:58:56;29.88;;;5.20;;
60243;SDS011;46106;51.468;5.814;2022-08-26T12:01:32;57.15;;;6.18;;
60243;SDS011;46106;51.468;5.814;2022-08-26T12:04:04;30.33;;;4.47;;
60243;SDS011;46106;51.468;5.814;2022-08-26T12:06:34;35.45;;;5.70;;
60243;SDS011;46106;51.468;5.814;2022-08-26T12:09:06;38.38;;;5.90;;
60243;SDS011;46106;51.468;5.814;2022-08-26T12:12:17;30.13;;;4.95;;
60243;SDS011;46106;51.468;5.814;2022-08-26T12:15:18;30.58;;;5.43;;
60243;SDS011;46106;51.468;5.814;2022-08-26T12:17:49;36.88;;;5.43;;
60243;SDS011;46106;51.468;5.814;2022-08-26T12:20:26;35.83;;;5.80;;
60243;SDS011;46106;51.468;5.814;2022-08-26T12:26:17;31.17;;;5.93;;
60243;SDS011;46106;51.468;5.814;2022-08-26T12:33:56;41.75;;;5.97;;
60243;SDS011;46106;51.468;5.814;2022-08-26T12:36:47;27.00;;;6.57;;
60243;SDS011;46106;51.468;5.814;2022-08-26T12:39:27;44.17;;;6.32;;
60243;SDS011;46106;51.468;5.814;2022-08-26T12:42:19;39.05;;;6.22;;
60243;SDS011;46106;51.468;5.814;2022-08-26T12:47:36;39.72;;;6.80;;
60243;SDS011;46106;51.468;5.814;2022-08-26T12:50:17;41.78;;;7.60;;
60243;SDS011;46106;51.468;5.814;2022-08-26T12:55:41;49.97;;;6.85;;
60243;SDS011;46106;51.468;5.814;2022-08-26T12:58:19;39.40;;;6.72;;
60243;SDS011;46106;51.468;5.814;2022-08-26T13:00:48;24.95;;;5.97;;
60243;SDS011;46106;51.468;5.814;2022-08-26T13:06:25;39.58;;;6.20;;
60243;SDS011;46106;51.468;5.814;2022-08-26T13:14:11;31.05;;;6.35;;
60243;SDS011;46106;51.468;5.814;2022-08-26T13:16:39;35.47;;;6.05;;
60243;SDS011;46106;51.468;5.814;2022-08-26T13:19:28;20.52;;;6.38;;
60243;SDS011;46106;51.468;5.814;2022-08-26T13:22:01;31.15;;;6.10;;
60243;SDS011;46106;51.468;5.814;2022-08-26T13:24:36;19.00;;;6.30;;
60243;SDS011;46106;51.468;5.814;2022-08-26T13:27:06;29.30;;;6.72;;
60243;SDS011;46106;51.468;5.814;2022-08-26T13:29:39;38.35;;;6.38;;
60243;SDS011;46106;51.468;5.814;2022-08-26T13:32:06;26.23;;;7.03;;
60243;SDS011;46106;51.468;5.814;2022-08-26T13:34:32;28.48;;;7.15;;
60243;SDS011;46106;51.468;5.814;2022-08-26T13:37:00;32.88;;;7.25;;
60243;SDS011;46106;51.468;5.814;2022-08-26T13:39:26;27.25;;;7.45;;
60243;SDS011;46106;51.468;5.814;2022-08-26T13:41:55;33.45;;;8.38;;
60243;SDS011;46106;51.468;5.814;2022-08-26T13:44:21;45.72;;;8.60;;
60243;SDS011;46106;51.468;5.814;2022-08-26T13:46:50;34.53;;;9.45;;
60243;SDS011;46106;51.468;5.814;2022-08-26T13:49:16;28.13;;;7.82;;
60243;SDS011;46106;51.468;5.814;2022-08-26T13:51:42;35.30;;;9.18;;
60243;SDS011;46106;51.468;5.814;2022-08-26T13:54:12;26.55;;;8.38;;
60243;SDS011;46106;51.468;5.814;2022-08-26T13:56:39;34.55;;;8.10;;
60243;SDS011;46106;51.468;5.814;2022-08-26T13:59:07;26.42;;;8.52;;
60243;SDS011;46106;51.468;5.814;2022-08-26T14:01:43;27.40;;;8.60;;
60243;SDS011;46106;51.468;5.814;2022-08-26T14:04:10;40.13;;;9.65;;
60243;SDS011;46106;51.468;5.814;2022-08-26T14:06:35;26.48;;;8.30;;
60243;SDS011;46106;51.468;5.814;2022-08-26T14:09:06;40.42;;;9.27;;
60243;SDS011;46106;51.468;5.814;2022-08-26T14:11:32;34.03;;;9.80;;
60243;SDS011;46106;51.468;5.814;2022-08-26T14:14:01;27.25;;;9.43;;
60243;SDS011;46106;51.468;5.814;2022-08-26T14:16:31;41.95;;;9.10;;
60243;SDS011;46106;51.468;5.814;2022-08-26T14:19:02;35.28;;;9.68;;
60243;SDS011;46106;51.468;5.814;2022-08-26T14:21:36;26.17;;;9.13;;
60243;SDS011;46106;51.468;5.814;2022-08-26T14:24:03;28.50;;;8.70;;
60243;SDS011;46106;51.468;5.814;2022-08-26T14:26:36;29.27;;;8.45;;
60243;SDS011;46106;51.468;5.814;2022-08-26T14:29:02;42.10;;;10.18;;
60243;SDS011;46106;51.468;5.814;2022-08-26T14:31:36;23.98;;;8.75;;
60243;SDS011;46106;51.468;5.814;2022-08-26T14:34:04;22.88;;;8.93;;
60243;SDS011;46106;51.468;5.814;2022-08-26T14:36:35;21.83;;;7.72;;
60243;SDS011;46106;51.468;5.814;2022-08-26T14:39:07;22.70;;;7.47;;
60243;SDS011;46106;51.468;5.814;2022-08-26T14:41:37;25.70;;;6.55;;
60243;SDS011;46106;51.468;5.814;2022-08-26T14:44:30;38.10;;;5.43;;
60243;SDS011;46106;51.468;5.814;2022-08-26T14:47:01;23.17;;;5.50;;
60243;SDS011;46106;51.468;5.814;2022-08-26T14:49:33;21.20;;;4.90;;
60243;SDS011;46106;51.468;5.814;2022-08-26T14:52:00;18.83;;;4.90;;
60243;SDS011;46106;51.468;5.814;2022-08-26T14:54:28;28.75;;;5.03;;
60243;SDS011;46106;51.468;5.814;2022-08-26T14:59:31;16.02;;;3.60;;
60243;SDS011;46106;51.468;5.814;2022-08-26T15:02:05;17.67;;;2.75;;
60243;SDS011;46106;51.468;5.814;2022-08-26T15:04:37;12.45;;;3.20;;
60243;SDS011;46106;51.468;5.814;2022-08-26T15:07:08;17.17;;;3.05;;
60243;SDS011;46106;51.468;5.814;2022-08-26T15:09:34;10.77;;;2.00;;
60243;SDS011;46106;51.468;5.814;2022-08-26T15:12:05;10.40;;;1.92;;
60243;SDS011;46106;51.468;5.814;2022-08-26T15:14:38;12.95;;;2.05;;
60243;SDS011;46106;51.468;5.814;2022-08-26T15:17:04;14.80;;;1.98;;
60243;SDS011;46106;51.468;5.814;2022-08-26T15:19:32;12.68;;;1.50;;
60243;SDS011;46106;51.468;5.814;2022-08-26T15:22:06;11.60;;;1.80;;
60243;SDS011;46106;51.468;5.814;2022-08-26T15:24:36;12.32;;;1.80;;
60243;SDS011;46106;51.468;5.814;2022-08-26T15:27:07;13.02;;;1.75;;
60243;SDS011;46106;51.468;5.814;2022-08-26T15:29:42;11.70;;;1.60;;
60243;SDS011;46106;51.468;5.814;2022-08-26T15:32:17;11.93;;;1.90;;
60243;SDS011;46106;51.468;5.814;2022-08-26T15:34:46;13.88;;;1.67;;
60243;SDS011;46106;51.468;5.814;2022-08-26T15:37:13;11.80;;;2.50;;
60243;SDS011;46106;51.468;5.814;2022-08-26T15:39:40;13.15;;;3.30;;
60243;SDS011;46106;51.468;5.814;2022-08-26T15:42:06;17.05;;;2.90;;
60243;SDS011;46106;51.468;5.814;2022-08-26T15:44:41;15.82;;;2.75;;
60243;SDS011;46106;51.468;5.814;2022-08-26T15:47:07;16.50;;;2.20;;
60243;SDS011;46106;51.468;5.814;2022-08-26T15:49:33;15.18;;;2.88;;
60243;SDS011;46106;51.468;5.814;2022-08-26T15:51:58;10.70;;;2.13;;
60243;SDS011;46106;51.468;5.814;2022-08-26T15:54:24;15.93;;;2.05;;
60243;SDS011;46106;51.468;5.814;2022-08-26T15:56:59;12.85;;;1.67;;
60243;SDS011;46106;51.468;5.814;2022-08-26T15:59:26;9.88;;;1.80;;
60243;SDS011;46106;51.468;5.814;2022-08-26T16:01:58;6.95;;;1.42;;
60243;SDS011;46106;51.468;5.814;2022-08-26T16:04:24;14.20;;;1.60;;
60243;SDS011;46106;51.468;5.814;2022-08-26T16:06:56;13.27;;;1.65;;
60243;SDS011;46106;51.468;5.814;2022-08-26T16:09:25;14.73;;;1.75;;
60243;SDS011;46106;51.468;5.814;2022-08-26T16:11:54;17.50;;;2.25;;
60243;SDS011;46106;51.468;5.814;2022-08-26T16:14:23;21.58;;;2.67;;
60243;SDS011;46106;51.468;5.814;2022-08-26T16:16:49;15.88;;;1.70;;
60243;SDS011;46106;51.468;5.814;2022-08-26T16:19:17;30.27;;;3.80;;
60243;SDS011;46106;51.468;5.814;2022-08-26T16:21:48;25.40;;;4.68;;